createdAt,value
2019-02-09T00:00:53.105Z,96.20
2019-02-09T00:03:26.694Z,96.30
2019-02-09T00:06:00.335Z,96.30
2019-02-09T00:08:34.010Z,96.40
2019-02-09T00:11:07.847Z,96.50
2019-02-09T00:13:41.495Z,96.50
2019-02-09T00:16:15.226Z,96.50
2019-02-09T00:18:48.826Z,96.50
2019-02-09T00:21:22.544Z,96.50
2019-02-09T00:23:56.194Z,96.50
2019-02-09T00:26:30.359Z,96.50
2019-02-09T00:29:04.180Z,96.50
2019-02-09T00:31:37.869Z,96.50
2019-02-09T00:34:12.824Z,96.50
2019-02-09T00:36:46.456Z,96.60
2019-02-09T00:39:20.049Z,96.80
2019-02-09T00:41:53.697Z,96.60
2019-02-09T00:44:27.288Z,96.70
2019-02-09T00:47:00.940Z,96.80
2019-02-09T00:49:34.536Z,96.90
2019-02-09T00:52:08.342Z,96.90
2019-02-09T00:54:41.927Z,96.90
2019-02-09T00:57:15.567Z,97.00
2019-02-09T00:59:54.046Z,97.00
2019-02-09T01:02:24.431Z,97.00
2019-02-09T01:04:58.122Z,97.00
2019-02-09T01:07:31.752Z,97.00
2019-02-09T01:10:08.503Z,97.00
2019-02-09T01:12:42.296Z,96.90
2019-02-09T01:15:19.552Z,96.90
2019-02-09T01:17:53.313Z,96.80
2019-02-09T01:20:28.936Z,96.80
2019-02-09T01:23:02.707Z,96.60
2019-02-09T01:25:36.273Z,96.60
2019-02-09T01:28:10.032Z,96.50
2019-02-09T01:30:43.848Z,96.40
2019-02-09T01:33:17.479Z,96.30
2019-02-09T01:35:51.061Z,96.20
2019-02-09T01:38:24.768Z,96.10
2019-02-09T01:40:59.494Z,96.00
2019-02-09T01:43:34.605Z,96.00
2019-02-09T01:46:08.354Z,96.00
2019-02-09T01:48:41.993Z,95.90
2019-02-09T01:51:15.657Z,95.90
2019-02-09T01:53:49.282Z,95.90
2019-02-09T01:56:22.940Z,95.80
2019-02-09T01:58:56.558Z,95.80
2019-02-09T02:01:30.143Z,95.90
2019-02-09T02:04:04.377Z,95.80
2019-02-09T02:06:38.140Z,95.80
2019-02-09T02:09:11.777Z,95.80
2019-02-09T02:11:45.490Z,95.80
2019-02-09T02:14:19.296Z,95.80
2019-02-09T02:16:52.901Z,95.80
2019-02-09T02:19:26.543Z,95.80
2019-02-09T02:22:00.203Z,95.90
2019-02-09T02:24:34.862Z,95.90
2019-02-09T02:27:08.462Z,96.00
2019-02-09T02:29:42.090Z,96.10
2019-02-09T02:32:16.025Z,96.10
2019-02-09T02:34:55.550Z,96.20
2019-02-09T02:37:29.128Z,96.20
2019-02-09T02:40:02.858Z,96.30
2019-02-09T02:42:36.514Z,96.50
2019-02-09T02:45:13.061Z,96.50
2019-02-09T02:47:47.818Z,96.50
2019-02-09T02:50:22.776Z,96.50
2019-02-09T02:52:56.353Z,96.60
2019-02-09T02:55:32.400Z,96.60
2019-02-09T02:58:06.131Z,96.70
2019-02-09T03:00:39.907Z,96.60
2019-02-09T03:03:13.483Z,96.70
2019-02-09T03:05:47.183Z,96.60
2019-02-09T03:08:20.757Z,96.60
2019-02-09T03:10:54.380Z,96.70
2019-02-09T03:13:27.959Z,96.70
2019-02-09T03:16:01.707Z,96.60
2019-02-09T03:18:35.280Z,96.60
2019-02-09T03:21:08.907Z,96.60
2019-02-09T03:23:42.555Z,96.60
2019-02-09T03:26:16.109Z,96.70
2019-02-09T03:28:49.767Z,96.70
2019-02-09T03:31:23.453Z,96.60
2019-02-09T03:33:57.088Z,96.70
2019-02-09T03:36:30.743Z,96.60
2019-02-09T03:39:07.003Z,96.60
2019-02-09T03:41:40.584Z,96.50
2019-02-09T03:44:14.216Z,96.50
2019-02-09T03:46:47.791Z,96.50
2019-02-09T03:49:21.492Z,96.50
2019-02-09T03:51:55.081Z,96.80
2019-02-09T03:54:28.705Z,96.50
2019-02-09T03:57:02.343Z,96.50
2019-02-09T03:59:36.027Z,96.50
2019-02-09T04:02:09.784Z,96.50
2019-02-09T04:04:44.885Z,96.40
2019-02-09T04:07:18.465Z,96.50
2019-02-09T04:09:52.198Z,96.40
2019-02-09T04:12:25.863Z,96.40
2019-02-09T04:14:59.485Z,96.40
2019-02-09T04:17:33.070Z,96.50
2019-02-09T04:20:10.033Z,96.50
2019-02-09T04:22:44.132Z,96.50
2019-02-09T04:25:19.893Z,96.60
2019-02-09T04:27:53.603Z,96.70
2019-02-09T04:30:31.972Z,96.80
2019-02-09T04:33:05.647Z,96.90
2019-02-09T04:35:39.283Z,96.90
2019-02-09T04:38:12.937Z,97.00
2019-02-09T04:40:46.647Z,97.00
2019-02-09T04:43:20.232Z,97.00
2019-02-09T04:45:53.855Z,97.00
2019-02-09T04:48:27.447Z,97.00
2019-02-09T04:51:01.225Z,96.90
2019-02-09T04:53:34.978Z,96.90
2019-02-09T04:56:08.785Z,96.90
2019-02-09T04:58:42.327Z,96.80
2019-02-09T05:01:15.963Z,96.80
2019-02-09T05:03:49.688Z,96.80
2019-02-09T05:06:23.364Z,96.90
2019-02-09T05:08:57.006Z,96.80
2019-02-09T05:11:30.599Z,96.80
2019-02-09T05:14:04.384Z,96.80
2019-02-09T05:16:38.058Z,96.60
2019-02-09T05:19:11.733Z,96.60
2019-02-09T05:21:45.411Z,96.50
2019-02-09T05:24:19.090Z,96.40
2019-02-09T05:26:52.681Z,96.20
2019-02-09T05:29:26.306Z,96.40
2019-02-09T05:31:59.970Z,95.90
2019-02-09T05:34:33.561Z,95.70
2019-02-09T05:37:07.203Z,95.50
2019-02-09T05:39:40.971Z,95.30
2019-02-09T05:42:14.645Z,95.30
2019-02-09T05:44:48.410Z,95.10
2019-02-09T05:47:21.995Z,95.20
2019-02-09T05:49:55.679Z,95.10
2019-02-09T05:52:29.267Z,95.10
2019-02-09T05:55:02.885Z,95.00
2019-02-09T05:57:36.556Z,95.00
2019-02-09T06:00:16.495Z,94.90
2019-02-09T06:02:50.159Z,95.10
2019-02-09T06:05:23.901Z,94.90
2019-02-09T06:07:57.629Z,94.90
2019-02-09T06:10:31.247Z,95.00
2019-02-09T06:13:05.104Z,95.00
2019-02-09T06:15:38.861Z,95.00
2019-02-09T06:18:12.593Z,95.00
2019-02-09T06:20:46.293Z,95.00
2019-02-09T06:23:19.884Z,95.10
2019-02-09T06:25:53.845Z,95.10
2019-02-09T06:28:27.435Z,95.10
2019-02-09T06:31:01.149Z,95.20
2019-02-09T06:33:34.743Z,95.20
2019-02-09T06:36:08.492Z,95.20
2019-02-09T06:38:42.179Z,95.20
2019-02-09T06:41:15.819Z,95.30
2019-02-09T06:43:49.421Z,95.30
2019-02-09T06:46:23.023Z,95.20
2019-02-09T06:48:56.681Z,95.20
2019-02-09T06:51:30.315Z,95.10
2019-02-09T06:54:04.263Z,95.10
2019-02-09T06:56:37.981Z,95.00
2019-02-09T06:59:11.591Z,95.10
2019-02-09T07:01:48.763Z,95.00
2019-02-09T07:04:20.463Z,95.00
2019-02-09T07:06:54.069Z,94.90
2019-02-09T07:09:27.702Z,94.90
2019-02-09T07:12:01.303Z,94.80
2019-02-09T07:14:34.887Z,94.80
2019-02-09T07:17:08.660Z,94.80
2019-02-09T07:19:42.327Z,94.70
2019-02-09T07:22:16.005Z,94.60
2019-02-09T07:24:49.595Z,94.70
2019-02-09T07:27:23.606Z,94.60
2019-02-09T07:29:57.299Z,94.60
2019-02-09T07:32:31.027Z,94.50
2019-02-09T07:35:07.636Z,94.40
2019-02-09T07:37:41.258Z,94.30
2019-02-09T07:40:17.757Z,94.30
2019-02-09T07:42:51.548Z,94.20
2019-02-09T07:45:29.872Z,94.20
2019-02-09T07:48:04.466Z,94.10
2019-02-09T07:50:38.124Z,94.10
2019-02-09T07:53:11.832Z,94.30
2019-02-09T07:55:45.501Z,94.00
2019-02-09T07:58:19.119Z,93.90
2019-02-09T08:00:53.994Z,93.80
2019-02-09T08:03:28.746Z,93.70
2019-02-09T08:06:02.306Z,93.60
2019-02-09T08:08:36.086Z,93.70
2019-02-09T08:11:09.842Z,93.60
2019-02-09T08:13:43.440Z,93.40
2019-02-09T08:16:17.096Z,93.30
2019-02-09T08:18:50.818Z,93.20
2019-02-09T08:21:24.542Z,93.10
2019-02-09T08:23:58.134Z,93.00
2019-02-09T08:26:31.846Z,92.70
2019-02-09T08:29:05.510Z,92.60
2019-02-09T08:31:39.271Z,92.50
2019-02-09T08:34:12.936Z,92.30
2019-02-09T08:36:48.507Z,92.20
2019-02-09T08:39:22.156Z,92.00
2019-02-09T08:41:56.102Z,91.90
2019-02-09T08:44:29.702Z,91.80
2019-02-09T08:47:03.987Z,91.70
2019-02-09T08:49:37.706Z,91.70
2019-02-09T08:52:11.386Z,91.60
2019-02-09T08:54:45.036Z,91.40
2019-02-09T08:57:18.846Z,91.40
2019-02-09T08:59:53.008Z,91.40
2019-02-09T09:02:27.038Z,91.40
2019-02-09T09:05:00.783Z,91.40
2019-02-09T09:07:34.383Z,91.40
2019-02-09T09:10:14.402Z,91.40
2019-02-09T09:12:48.041Z,91.50
2019-02-09T09:15:24.660Z,91.40
2019-02-09T09:17:58.418Z,91.40
2019-02-09T09:20:37.319Z,91.40
2019-02-09T09:23:11.026Z,91.40
2019-02-09T09:25:44.750Z,91.20
2019-02-09T09:28:18.654Z,91.10
2019-02-09T09:30:53.782Z,91.10
2019-02-09T09:33:27.483Z,91.00
2019-02-09T09:36:01.320Z,91.00
2019-02-09T09:38:35.075Z,91.00
2019-02-09T09:41:10.138Z,91.00
2019-02-09T09:43:44.088Z,90.90
2019-02-09T09:46:17.774Z,90.80
2019-02-09T09:48:51.520Z,90.60
2019-02-09T09:51:25.266Z,90.50
2019-02-09T09:53:59.005Z,90.70
2019-02-09T09:56:32.736Z,90.60
2019-02-09T09:59:06.644Z,90.40
2019-02-09T10:01:40.346Z,90.50
2019-02-09T10:04:14.015Z,90.40
2019-02-09T10:06:48.627Z,90.30
2019-02-09T10:09:22.252Z,90.20
2019-02-09T10:11:56.146Z,90.00
2019-02-09T10:14:29.912Z,89.40
2019-02-09T10:17:03.540Z,89.00
2019-02-09T10:19:37.114Z,89.00
2019-02-09T10:22:10.776Z,89.10
2019-02-09T10:24:44.416Z,88.60
2019-02-09T10:27:18.104Z,88.90
2019-02-09T10:29:51.760Z,88.30
2019-02-09T10:32:25.483Z,88.30
2019-02-09T10:34:59.083Z,87.50
2019-02-09T10:37:32.776Z,87.20
2019-02-09T10:40:09.424Z,86.10
2019-02-09T10:42:44.183Z,85.70
2019-02-09T10:45:23.470Z,85.60
2019-02-09T10:47:59.759Z,85.80
2019-02-09T10:50:36.484Z,83.90
2019-02-09T10:53:10.260Z,84.50
2019-02-09T10:55:44.024Z,84.00
2019-02-09T10:58:17.708Z,83.80
2019-02-09T11:00:57.412Z,83.00
2019-02-09T11:03:31.380Z,82.80
2019-02-09T11:06:05.113Z,82.80
2019-02-09T11:08:38.834Z,82.60
2019-02-09T11:11:13.648Z,82.80
2019-02-09T11:13:47.720Z,82.80
2019-02-09T11:16:21.417Z,82.40
2019-02-09T11:18:55.946Z,83.00
2019-02-09T11:21:30.318Z,83.40
2019-02-09T11:24:04.931Z,83.50
2019-02-09T11:26:38.633Z,84.00
2019-02-09T11:29:12.437Z,84.40
2019-02-09T11:31:46.271Z,85.00
2019-02-09T11:34:20.125Z,87.70
2019-02-09T11:36:57.075Z,89.60
2019-02-09T11:39:30.759Z,90.30
2019-02-09T11:42:04.522Z,90.50
2019-02-09T11:44:41.109Z,91.40
2019-02-09T11:47:14.118Z,91.90
2019-02-09T11:49:47.715Z,92.20
2019-02-09T11:52:22.225Z,92.60
2019-02-09T11:54:55.970Z,92.40
2019-02-09T11:57:29.611Z,92.40
2019-02-09T12:00:05.618Z,92.20
2019-02-09T12:02:39.287Z,92.20
2019-02-09T12:05:13.488Z,92.00
2019-02-09T12:07:47.241Z,92.10
2019-02-09T12:10:26.187Z,92.00
2019-02-09T12:12:59.966Z,91.80
2019-02-09T12:15:36.141Z,91.70
2019-02-09T12:18:14.353Z,91.40
2019-02-09T12:20:47.999Z,91.70
2019-02-09T12:23:21.695Z,91.80
2019-02-09T12:25:55.382Z,92.00
2019-02-09T12:28:28.981Z,92.00
2019-02-09T12:31:02.633Z,92.30
2019-02-09T12:33:36.365Z,92.20
2019-02-09T12:36:10.555Z,92.10
2019-02-09T12:38:44.199Z,92.20
2019-02-09T12:41:17.801Z,92.40
2019-02-09T12:43:51.466Z,92.70
2019-02-09T12:46:25.124Z,92.90
2019-02-09T12:48:58.753Z,93.10
2019-02-09T12:51:32.420Z,93.40
2019-02-09T12:54:06.282Z,93.70
2019-02-09T12:56:39.862Z,94.20
2019-02-09T12:59:15.120Z,94.50
2019-02-09T13:01:48.941Z,94.60
2019-02-09T13:04:22.628Z,94.90
2019-02-09T13:06:56.276Z,95.00
2019-02-09T13:09:29.919Z,95.10
2019-02-09T13:12:03.887Z,95.30
2019-02-09T13:14:38.490Z,95.50
2019-02-09T13:17:12.385Z,95.50
2019-02-09T13:19:46.027Z,95.40
2019-02-09T13:22:20.186Z,95.50
2019-02-09T13:24:53.872Z,95.40
2019-02-09T13:27:27.461Z,95.30
2019-02-09T13:30:01.175Z,95.20
2019-02-09T13:32:34.783Z,95.00
2019-02-09T13:35:10.932Z,95.00
2019-02-09T13:41:13.320Z,95.50
2019-02-09T13:43:47.569Z,95.90
2019-02-09T13:46:21.257Z,96.10
2019-02-09T13:48:54.915Z,96.30
2019-02-09T13:51:28.657Z,96.60
2019-02-09T13:57:39.278Z,97.00
2019-02-09T14:00:19.670Z,97.10
2019-02-09T14:02:54.139Z,97.30
2019-02-09T14:05:27.967Z,97.60
2019-02-09T14:08:01.740Z,97.70
2019-02-09T14:10:35.521Z,97.80
2019-02-09T14:13:14.280Z,97.90
2019-02-09T14:15:44.383Z,98.10
2019-02-09T14:18:18.076Z,98.20
2019-02-09T14:20:51.739Z,98.30
2019-02-09T14:23:25.377Z,98.20
2019-02-09T14:25:58.961Z,98.30
2019-02-09T14:28:32.951Z,98.30
2019-02-09T14:31:06.671Z,98.50
2019-02-09T14:33:40.290Z,98.50
2019-02-09T14:36:14.019Z,98.60
2019-02-09T14:38:48.287Z,98.50
2019-02-09T14:41:22.042Z,98.60
2019-02-09T14:43:55.715Z,98.60
2019-02-09T14:46:29.367Z,98.70
2019-02-09T14:49:02.970Z,98.70
2019-02-09T14:51:36.560Z,98.70
2019-02-09T14:54:10.492Z,98.70
2019-02-09T14:56:44.119Z,98.70
2019-02-09T14:59:17.741Z,99.00
2019-02-09T15:01:52.442Z,98.90
2019-02-09T15:04:26.093Z,99.00
2019-02-09T15:06:59.747Z,99.00
2019-02-09T15:09:33.475Z,99.00
2019-02-09T15:12:07.191Z,99.00
2019-02-09T15:14:40.785Z,99.30
2019-02-09T15:17:14.548Z,99.00
2019-02-09T15:19:48.134Z,99.00
2019-02-09T15:22:21.785Z,99.00
2019-02-09T15:24:55.431Z,99.10
2019-02-09T15:27:29.065Z,99.10
2019-02-09T15:30:02.798Z,99.20
2019-02-09T15:32:36.519Z,99.20
2019-02-09T15:35:13.852Z,99.20
2019-02-09T15:37:47.559Z,99.20
2019-02-09T15:40:22.428Z,99.20
2019-02-09T15:42:56.053Z,99.20
2019-02-09T15:45:30.185Z,99.20
2019-02-09T15:48:04.481Z,99.20
2019-02-09T15:50:38.057Z,99.10
2019-02-09T15:53:11.669Z,99.10
2019-02-09T15:55:45.323Z,99.00
2019-02-09T15:58:19.127Z,99.00
2019-02-09T16:00:52.719Z,99.30
2019-02-09T16:03:26.381Z,98.80
2019-02-09T16:06:00.052Z,98.80
2019-02-09T16:08:33.677Z,98.80
2019-02-09T16:11:07.345Z,99.00
2019-02-09T16:13:45.576Z,99.10
2019-02-09T16:16:16.498Z,99.10
2019-02-09T16:18:50.103Z,99.10
2019-02-09T16:21:23.831Z,99.20
2019-02-09T16:27:34.546Z,99.50
2019-02-09T16:30:18.516Z,99.70
2019-02-09T16:32:50.000Z,99.70
2019-02-09T16:35:30.322Z,99.80
2019-02-09T16:38:03.973Z,99.90
2019-02-09T16:44:15.077Z,99.90
2019-02-09T16:46:48.738Z,99.90
2019-02-09T16:49:24.005Z,99.90
2019-02-09T16:51:57.752Z,99.90
2019-02-09T16:54:31.852Z,99.90
2019-02-09T16:57:05.507Z,99.90
2019-02-09T16:59:39.214Z,99.90
2019-02-09T17:02:12.888Z,99.90
2019-02-09T17:04:46.594Z,99.90
2019-02-09T17:07:20.209Z,99.90
2019-02-09T17:09:54.860Z,99.70
2019-02-09T17:12:28.440Z,99.60
2019-02-09T17:15:02.150Z,99.60
2019-02-09T17:17:35.812Z,99.90
2019-02-09T17:20:11.852Z,99.60
2019-02-09T17:22:45.514Z,99.60
2019-02-09T17:25:23.252Z,99.50
2019-02-09T17:27:56.953Z,99.40
2019-02-09T17:30:32.276Z,99.30
2019-02-09T17:33:06.431Z,99.30
2019-02-09T17:35:40.187Z,99.20
2019-02-09T17:38:13.837Z,99.20
2019-02-09T17:40:48.439Z,99.30
2019-02-09T17:43:22.100Z,99.20
2019-02-09T17:46:01.510Z,99.20
2019-02-09T17:48:35.100Z,99.10
2019-02-09T17:51:08.810Z,98.90
2019-02-09T17:53:42.416Z,98.70
2019-02-09T17:56:16.101Z,98.70
2019-02-09T17:58:49.754Z,98.40
2019-02-09T18:01:23.404Z,98.30
2019-02-09T18:03:57.062Z,98.40
2019-02-09T18:06:30.656Z,98.40
2019-02-09T18:09:06.890Z,98.50
2019-02-09T18:11:40.539Z,98.60
2019-02-09T18:14:14.493Z,98.70
2019-02-09T18:16:48.161Z,98.90
2019-02-09T18:19:21.839Z,98.80
2019-02-09T18:21:55.491Z,98.90
2019-02-09T18:28:06.681Z,99.00
2019-02-09T18:30:40.436Z,99.00
2019-02-09T18:33:16.277Z,98.80
2019-02-09T18:35:50.041Z,98.70
2019-02-09T18:38:23.626Z,98.40
2019-02-09T18:44:23.943Z,97.70
2019-02-09T18:46:57.639Z,97.50
2019-02-09T18:49:31.278Z,97.50
2019-02-09T18:52:05.197Z,97.50
2019-02-09T18:54:38.778Z,97.30
2019-02-09T18:57:12.410Z,97.20
2019-02-09T18:59:45.996Z,97.20
2019-02-09T19:02:19.641Z,96.90
2019-02-09T19:04:53.204Z,96.60
2019-02-09T19:07:26.877Z,96.40
2019-02-09T19:10:00.520Z,96.40
2019-02-09T19:12:34.148Z,96.40
2019-02-09T19:15:11.284Z,96.30
2019-02-09T19:17:45.120Z,96.40
2019-02-09T19:20:24.395Z,96.50
2019-02-09T19:22:58.157Z,96.60
2019-02-09T19:25:32.159Z,96.70
2019-02-09T19:28:06.360Z,96.90
2019-02-09T19:30:40.018Z,97.00
2019-02-09T19:33:13.692Z,97.20
2019-02-09T19:35:47.290Z,97.30
2019-02-09T19:38:21.044Z,97.30
2019-02-09T19:40:54.631Z,97.50
2019-02-09T19:43:28.410Z,97.50
2019-02-09T19:46:02.159Z,98.00
2019-02-09T19:48:35.840Z,97.80
2019-02-09T19:51:09.508Z,97.90
2019-02-09T19:53:45.163Z,97.90
2019-02-09T19:56:18.825Z,97.90
2019-02-09T19:58:52.467Z,97.90
2019-02-09T20:01:26.541Z,97.80
2019-02-09T20:04:00.226Z,97.60
2019-02-09T20:06:33.853Z,97.50
2019-02-09T20:09:07.540Z,97.50
2019-02-09T20:11:41.255Z,97.50
2019-02-09T20:14:14.839Z,97.50
2019-02-09T20:16:48.480Z,97.20
2019-02-09T20:19:22.149Z,97.00
2019-02-09T20:21:55.764Z,96.70
2019-02-09T20:24:29.364Z,96.60
2019-02-09T20:27:03.064Z,96.30
2019-02-09T20:29:36.791Z,96.10
2019-02-09T20:32:10.468Z,96.20
2019-02-09T20:34:44.056Z,96.60
2019-02-09T20:37:17.763Z,96.30
2019-02-09T20:39:51.343Z,96.30
2019-02-09T20:42:24.987Z,96.40
2019-02-09T20:44:58.574Z,96.50
2019-02-09T20:47:32.267Z,96.50
2019-02-09T20:50:08.938Z,96.60
2019-02-09T20:52:42.555Z,96.60
2019-02-09T20:55:17.372Z,96.40
2019-02-09T20:57:51.131Z,96.50
2019-02-09T21:00:27.845Z,96.50
2019-02-09T21:03:01.431Z,96.50
2019-02-09T21:05:36.767Z,96.60
2019-02-09T21:08:10.683Z,96.60
2019-02-09T21:14:21.472Z,96.70
2019-02-09T21:16:55.052Z,96.60
2019-02-09T21:19:28.761Z,96.60
2019-02-09T21:22:02.335Z,96.70
2019-02-09T21:24:35.961Z,96.60
2019-02-09T21:30:55.879Z,96.30
2019-02-09T21:33:29.504Z,96.40
2019-02-09T21:36:04.644Z,96.20
2019-02-09T21:38:38.294Z,96.30
2019-02-09T21:41:11.888Z,96.40
2019-02-09T21:43:45.671Z,96.40
2019-02-09T21:46:19.313Z,96.40
2019-02-09T21:48:52.925Z,96.30
2019-02-09T21:51:26.518Z,96.30
2019-02-09T21:54:00.130Z,96.20
2019-02-09T21:56:35.151Z,96.00
2019-02-09T21:59:08.720Z,95.90
2019-02-09T22:01:42.421Z,95.80
2019-02-09T22:04:15.992Z,95.80
2019-02-09T22:06:49.647Z,95.70
2019-02-09T22:09:23.286Z,95.70
2019-02-09T22:11:57.049Z,95.70
2019-02-09T22:14:30.714Z,95.50
2019-02-09T22:17:04.565Z,95.40
2019-02-09T22:19:38.173Z,95.30
2019-02-09T22:22:11.897Z,95.00
2019-02-09T22:24:45.514Z,95.00
2019-02-09T22:27:21.558Z,94.90
2019-02-09T22:29:55.211Z,94.80
2019-02-09T22:32:28.933Z,94.70
2019-02-09T22:35:02.528Z,94.60
2019-02-09T22:37:36.374Z,94.60
2019-02-09T22:40:13.148Z,94.50
2019-02-09T22:42:46.941Z,94.40
2019-02-09T22:45:22.599Z,94.40
2019-02-09T22:47:57.272Z,94.20
2019-02-09T22:50:36.862Z,94.30
2019-02-09T22:53:10.617Z,94.20
2019-02-09T22:55:44.368Z,94.20
2019-02-09T22:58:18.009Z,94.10
2019-02-09T23:01:03.711Z,94.10
2019-02-09T23:03:45.661Z,94.00
2019-02-09T23:06:22.331Z,94.00
2019-02-09T23:08:57.750Z,94.10
2019-02-09T23:15:09.559Z,94.40
2019-02-09T23:17:43.191Z,94.40
2019-02-09T23:20:16.775Z,94.50
2019-02-09T23:22:50.405Z,94.50
2019-02-09T23:25:23.991Z,94.50
2019-02-09T23:31:34.591Z,94.40
2019-02-09T23:34:08.168Z,94.40
2019-02-09T23:36:42.234Z,94.40
2019-02-09T23:39:15.885Z,94.50
2019-02-09T23:41:49.559Z,94.50
2019-02-09T23:44:23.145Z,94.60
2019-02-09T23:46:56.769Z,94.60
2019-02-09T23:49:30.348Z,94.70
2019-02-09T23:52:04.039Z,94.80
2019-02-09T23:54:37.691Z,94.80
2019-02-09T23:57:11.320Z,94.80
2019-02-09T23:59:44.915Z,94.90
